Terminal Aerodrome Forecast
Issued by NWS

Current Version | Previous Version | Text Only | Print | Product List | Glossary Off
Versions: 1 2 3 4 5 6 7 8 9 10 11 12 13 14 15 16 17 18 19 20 21 22 23 24 25

000
FTUS41 KPBZ 291501 AAA
TAFHLG
TAF AMD
KHLG 291501Z 2915/3012 08010KT P6SM -SHRA VCTS BKN015 OVC025CB
     FM292200 08011G21KT 5SM -SHRA BR OVC015
     FM300800 09012KT P6SM VCSH OVC025=

USA.gov is the U.S. government's official web portal to all federal, state and local government web resources and services.